aviador You're here:

SCVM Decoded Metar

in
Report Time2017-08-18 16:00:00
UTC Time2017-08-18 16:26:53
Flight Rules mvfr MVFR
Wind340° at 05 kt
W.Decomp.*RWY 05: 1.7 kt HW 4.7 kt LCW
W.Rank340° ranks 4
Current wind is below 340° avg. (7.2)
Visibility9999 m
Phenomena:N/A
Clouds:Broken 015 Hf
Overcast 070 Hf
Expected CloudBase > 1,200 ft AGL from Temp-Dew spread
Ceiling1,500 ft
Temp12°C
Dew Point09°C (82% RH)
AAT10.0°C
QNH1020 hPa
Raw Report
METAR SCVM 181600Z 34005KT 9999 BKN015 OVC070 12/09 Q1020=

Extra information for SCVM:More info

Social comments